sensor_id;sensor_type;location;lat;lon;timestamp;P1;durP1;ratioP1;P2;durP2;ratioP2
3924;SDS011;1977;52.274;10.518;2024-03-29T00:01:50;1.73;;;1.40;;
3924;SDS011;1977;52.274;10.518;2024-03-29T00:04:16;1.30;;;1.30;;
3924;SDS011;1977;52.274;10.518;2024-03-29T00:06:42;1.50;;;1.40;;
3924;SDS011;1977;52.274;10.518;2024-03-29T00:09:08;1.37;;;1.20;;
3924;SDS011;1977;52.274;10.518;2024-03-29T00:11:33;1.33;;;1.27;;
3924;SDS011;1977;52.274;10.518;2024-03-29T00:13:59;1.60;;;1.37;;
3924;SDS011;1977;52.274;10.518;2024-03-29T00:16:25;1.87;;;1.40;;
3924;SDS011;1977;52.274;10.518;2024-03-29T00:18:52;1.50;;;1.40;;
3924;SDS011;1977;52.274;10.518;2024-03-29T00:21:18;1.60;;;1.27;;
3924;SDS011;1977;52.274;10.518;2024-03-29T00:23:44;2.60;;;1.60;;
3924;SDS011;1977;52.274;10.518;2024-03-29T00:26:10;3.20;;;1.50;;
3924;SDS011;1977;52.274;10.518;2024-03-29T00:28:36;2.10;;;1.80;;
3924;SDS011;1977;52.274;10.518;2024-03-29T00:31:02;2.07;;;1.67;;
3924;SDS011;1977;52.274;10.518;2024-03-29T00:33:28;1.63;;;1.37;;
3924;SDS011;1977;52.274;10.518;2024-03-29T00:35:56;2.10;;;1.87;;
3924;SDS011;1977;52.274;10.518;2024-03-29T00:38:22;2.10;;;2.00;;
3924;SDS011;1977;52.274;10.518;2024-03-29T00:40:47;5.00;;;2.40;;
3924;SDS011;1977;52.274;10.518;2024-03-29T00:43:13;2.20;;;1.73;;
3924;SDS011;1977;52.274;10.518;2024-03-29T00:45:39;2.07;;;1.90;;
3924;SDS011;1977;52.274;10.518;2024-03-29T00:48:05;3.40;;;2.07;;
3924;SDS011;1977;52.274;10.518;2024-03-29T00:50:32;1.77;;;1.67;;
3924;SDS011;1977;52.274;10.518;2024-03-29T00:52:59;2.50;;;1.80;;
3924;SDS011;1977;52.274;10.518;2024-03-29T00:55:25;2.03;;;1.70;;
3924;SDS011;1977;52.274;10.518;2024-03-29T00:57:51;3.30;;;1.53;;
3924;SDS011;1977;52.274;10.518;2024-03-29T01:00:17;4.10;;;1.90;;
3924;SDS011;1977;52.274;10.518;2024-03-29T01:02:43;2.50;;;1.47;;
3924;SDS011;1977;52.274;10.518;2024-03-29T01:05:09;3.30;;;1.40;;
3924;SDS011;1977;52.274;10.518;2024-03-29T01:07:34;2.40;;;1.40;;
3924;SDS011;1977;52.274;10.518;2024-03-29T01:10:02;4.03;;;1.90;;
3924;SDS011;1977;52.274;10.518;2024-03-29T01:12:28;2.40;;;1.60;;
3924;SDS011;1977;52.274;10.518;2024-03-29T01:14:54;1.60;;;1.50;;
3924;SDS011;1977;52.274;10.518;2024-03-29T01:17:20;1.47;;;1.37;;
3924;SDS011;1977;52.274;10.518;2024-03-29T01:19:45;1.87;;;1.63;;
3924;SDS011;1977;52.274;10.518;2024-03-29T01:22:11;2.40;;;1.80;;
3924;SDS011;1977;52.274;10.518;2024-03-29T01:24:37;1.60;;;1.50;;
3924;SDS011;1977;52.274;10.518;2024-03-29T01:27:04;1.70;;;1.47;;
3924;SDS011;1977;52.274;10.518;2024-03-29T01:29:31;1.40;;;1.30;;
3924;SDS011;1977;52.274;10.518;2024-03-29T01:31:57;1.70;;;1.60;;
3924;SDS011;1977;52.274;10.518;2024-03-29T01:34:23;2.43;;;2.00;;
3924;SDS011;1977;52.274;10.518;2024-03-29T01:36:49;3.13;;;2.40;;
3924;SDS011;1977;52.274;10.518;2024-03-29T01:39:14;5.80;;;2.77;;
3924;SDS011;1977;52.274;10.518;2024-03-29T01:41:40;3.90;;;3.40;;
3924;SDS011;1977;52.274;10.518;2024-03-29T01:44:07;3.60;;;2.60;;
3924;SDS011;1977;52.274;10.518;2024-03-29T01:46:35;4.70;;;2.77;;
3924;SDS011;1977;52.274;10.518;2024-03-29T01:49:03;3.23;;;3.03;;
3924;SDS011;1977;52.274;10.518;2024-03-29T01:51:30;3.57;;;3.27;;
3924;SDS011;1977;52.274;10.518;2024-03-29T01:53:58;3.00;;;2.53;;
3924;SDS011;1977;52.274;10.518;2024-03-29T01:56:26;3.70;;;3.20;;
3924;SDS011;1977;52.274;10.518;2024-03-29T01:58:53;3.70;;;2.80;;
3924;SDS011;1977;52.274;10.518;2024-03-29T02:01:24;3.73;;;2.70;;
3924;SDS011;1977;52.274;10.518;2024-03-29T02:03:53;4.77;;;2.77;;
3924;SDS011;1977;52.274;10.518;2024-03-29T02:06:21;2.60;;;2.40;;
3924;SDS011;1977;52.274;10.518;2024-03-29T02:08:48;5.63;;;2.47;;
3924;SDS011;1977;52.274;10.518;2024-03-29T02:11:16;2.70;;;2.50;;
3924;SDS011;1977;52.274;10.518;2024-03-29T02:13:43;3.03;;;2.20;;
3924;SDS011;1977;52.274;10.518;2024-03-29T02:16:10;2.40;;;2.30;;
3924;SDS011;1977;52.274;10.518;2024-03-29T02:18:39;1.90;;;1.60;;
3924;SDS011;1977;52.274;10.518;2024-03-29T02:21:05;1.97;;;1.77;;
3924;SDS011;1977;52.274;10.518;2024-03-29T02:23:34;4.83;;;1.63;;
3924;SDS011;1977;52.274;10.518;2024-03-29T02:26:04;1.70;;;1.60;;
3924;SDS011;1977;52.274;10.518;2024-03-29T02:28:31;1.87;;;1.27;;
3924;SDS011;1977;52.274;10.518;2024-03-29T02:30:58;3.90;;;1.37;;
3924;SDS011;1977;52.274;10.518;2024-03-29T02:33:25;1.83;;;1.53;;
3924;SDS011;1977;52.274;10.518;2024-03-29T02:35:51;1.47;;;1.37;;
3924;SDS011;1977;52.274;10.518;2024-03-29T02:38:18;2.00;;;1.27;;
3924;SDS011;1977;52.274;10.518;2024-03-29T02:40:45;2.33;;;2.13;;
3924;SDS011;1977;52.274;10.518;2024-03-29T02:43:13;2.03;;;1.53;;
3924;SDS011;1977;52.274;10.518;2024-03-29T02:45:40;1.67;;;1.20;;
3924;SDS011;1977;52.274;10.518;2024-03-29T02:48:06;1.97;;;1.40;;
3924;SDS011;1977;52.274;10.518;2024-03-29T02:50:33;1.30;;;1.20;;
3924;SDS011;1977;52.274;10.518;2024-03-29T02:52:59;1.33;;;1.23;;
3924;SDS011;1977;52.274;10.518;2024-03-29T02:55:25;1.53;;;1.30;;
3924;SDS011;1977;52.274;10.518;2024-03-29T02:57:51;1.20;;;1.20;;
3924;SDS011;1977;52.274;10.518;2024-03-29T03:00:19;1.40;;;1.10;;
3924;SDS011;1977;52.274;10.518;2024-03-29T03:02:45;1.83;;;1.33;;
3924;SDS011;1977;52.274;10.518;2024-03-29T03:05:12;1.67;;;1.47;;
3924;SDS011;1977;52.274;10.518;2024-03-29T03:07:38;1.87;;;1.77;;
3924;SDS011;1977;52.274;10.518;2024-03-29T03:10:27;3.73;;;1.97;;
3924;SDS011;1977;52.274;10.518;2024-03-29T03:13:12;1.13;;;1.13;;
3924;SDS011;1977;52.274;10.518;2024-03-29T03:15:40;1.40;;;1.20;;
3924;SDS011;1977;52.274;10.518;2024-03-29T03:18:07;1.63;;;1.30;;
3924;SDS011;1977;52.274;10.518;2024-03-29T03:20:33;1.57;;;1.10;;
3924;SDS011;1977;52.274;10.518;2024-03-29T03:22:59;2.30;;;1.20;;
3924;SDS011;1977;52.274;10.518;2024-03-29T03:25:27;1.33;;;1.23;;
3924;SDS011;1977;52.274;10.518;2024-03-29T03:27:53;4.07;;;1.40;;
3924;SDS011;1977;52.274;10.518;2024-03-29T03:30:19;1.30;;;1.10;;
3924;SDS011;1977;52.274;10.518;2024-03-29T03:32:47;1.33;;;1.07;;
3924;SDS011;1977;52.274;10.518;2024-03-29T03:35:14;1.50;;;1.40;;
3924;SDS011;1977;52.274;10.518;2024-03-29T03:37:39;1.20;;;1.10;;
3924;SDS011;1977;52.274;10.518;2024-03-29T03:40:07;2.90;;;1.40;;
3924;SDS011;1977;52.274;10.518;2024-03-29T03:42:33;1.40;;;1.20;;
3924;SDS011;1977;52.274;10.518;2024-03-29T03:45:00;1.37;;;1.27;;
3924;SDS011;1977;52.274;10.518;2024-03-29T03:47:25;1.97;;;1.10;;
3924;SDS011;1977;52.274;10.518;2024-03-29T03:49:54;1.70;;;1.23;;
3924;SDS011;1977;52.274;10.518;2024-03-29T03:52:19;1.20;;;1.10;;
3924;SDS011;1977;52.274;10.518;2024-03-29T03:54:46;2.30;;;1.20;;
3924;SDS011;1977;52.274;10.518;2024-03-29T03:57:12;1.20;;;1.10;;
3924;SDS011;1977;52.274;10.518;2024-03-29T03:59:39;2.50;;;1.10;;
3924;SDS011;1977;52.274;10.518;2024-03-29T04:02:04;3.43;;;1.10;;
3924;SDS011;1977;52.274;10.518;2024-03-29T04:04:31;0.90;;;0.90;;
3924;SDS011;1977;52.274;10.518;2024-03-29T04:06:58;1.60;;;1.43;;
3924;SDS011;1977;52.274;10.518;2024-03-29T04:09:25;1.53;;;1.40;;
3924;SDS011;1977;52.274;10.518;2024-03-29T04:11:51;1.53;;;1.43;;
3924;SDS011;1977;52.274;10.518;2024-03-29T04:14:18;1.77;;;1.17;;
3924;SDS011;1977;52.274;10.518;2024-03-29T04:16:44;1.47;;;1.37;;
3924;SDS011;1977;52.274;10.518;2024-03-29T04:19:12;1.53;;;1.27;;
3924;SDS011;1977;52.274;10.518;2024-03-29T04:21:38;6.83;;;1.50;;
3924;SDS011;1977;52.274;10.518;2024-03-29T04:24:06;1.50;;;1.40;;
3924;SDS011;1977;52.274;10.518;2024-03-29T04:26:34;1.07;;;0.97;;
3924;SDS011;1977;52.274;10.518;2024-03-29T04:29:01;2.80;;;1.40;;
3924;SDS011;1977;52.274;10.518;2024-03-29T04:31:27;3.00;;;1.33;;
3924;SDS011;1977;52.274;10.518;2024-03-29T04:33:54;3.37;;;1.50;;
3924;SDS011;1977;52.274;10.518;2024-03-29T04:36:20;2.13;;;1.50;;
3924;SDS011;1977;52.274;10.518;2024-03-29T04:38:47;1.50;;;1.40;;
3924;SDS011;1977;52.274;10.518;2024-03-29T04:41:15;1.57;;;1.30;;
3924;SDS011;1977;52.274;10.518;2024-03-29T04:43:42;1.83;;;1.37;;
3924;SDS011;1977;52.274;10.518;2024-03-29T04:46:10;1.40;;;1.30;;
3924;SDS011;1977;52.274;10.518;2024-03-29T04:48:37;1.20;;;1.20;;
3924;SDS011;1977;52.274;10.518;2024-03-29T04:51:05;1.30;;;1.20;;
3924;SDS011;1977;52.274;10.518;2024-03-29T04:53:32;4.47;;;1.60;;
3924;SDS011;1977;52.274;10.518;2024-03-29T04:55:59;2.17;;;1.50;;
3924;SDS011;1977;52.274;10.518;2024-03-29T04:58:27;1.20;;;1.10;;
3924;SDS011;1977;52.274;10.518;2024-03-29T05:00:54;1.77;;;1.17;;
3924;SDS011;1977;52.274;10.518;2024-03-29T05:03:21;2.50;;;1.77;;
3924;SDS011;1977;52.274;10.518;2024-03-29T05:05:49;5.63;;;1.73;;
3924;SDS011;1977;52.274;10.518;2024-03-29T05:08:17;1.30;;;1.20;;
3924;SDS011;1977;52.274;10.518;2024-03-29T05:10:44;1.67;;;1.40;;
3924;SDS011;1977;52.274;10.518;2024-03-29T05:13:12;2.80;;;1.40;;
3924;SDS011;1977;52.274;10.518;2024-03-29T05:15:40;1.60;;;1.50;;
3924;SDS011;1977;52.274;10.518;2024-03-29T05:18:07;1.87;;;1.60;;
3924;SDS011;1977;52.274;10.518;2024-03-29T05:20:33;2.13;;;2.03;;
3924;SDS011;1977;52.274;10.518;2024-03-29T05:23:01;1.53;;;1.30;;
3924;SDS011;1977;52.274;10.518;2024-03-29T05:25:28;1.43;;;1.33;;
3924;SDS011;1977;52.274;10.518;2024-03-29T05:27:55;2.03;;;1.40;;
3924;SDS011;1977;52.274;10.518;2024-03-29T05:30:21;1.60;;;1.40;;
3924;SDS011;1977;52.274;10.518;2024-03-29T05:32:50;3.10;;;1.20;;
3924;SDS011;1977;52.274;10.518;2024-03-29T05:35:17;1.40;;;1.30;;
3924;SDS011;1977;52.274;10.518;2024-03-29T05:37:44;1.87;;;1.70;;
3924;SDS011;1977;52.274;10.518;2024-03-29T05:40:15;1.40;;;1.30;;
3924;SDS011;1977;52.274;10.518;2024-03-29T05:42:42;1.97;;;1.47;;
3924;SDS011;1977;52.274;10.518;2024-03-29T05:45:21;2.50;;;1.37;;
3924;SDS011;1977;52.274;10.518;2024-03-29T05:47:52;1.83;;;1.47;;
3924;SDS011;1977;52.274;10.518;2024-03-29T05:50:19;1.60;;;1.30;;
3924;SDS011;1977;52.274;10.518;2024-03-29T05:52:46;1.50;;;1.40;;
3924;SDS011;1977;52.274;10.518;2024-03-29T05:55:13;1.53;;;1.43;;
3924;SDS011;1977;52.274;10.518;2024-03-29T05:57:40;10.30;;;1.77;;
3924;SDS011;1977;52.274;10.518;2024-03-29T06:00:10;1.50;;;1.40;;
3924;SDS011;1977;52.274;10.518;2024-03-29T06:02:38;1.37;;;1.27;;
3924;SDS011;1977;52.274;10.518;2024-03-29T06:05:07;3.33;;;1.77;;
3924;SDS011;1977;52.274;10.518;2024-03-29T06:07:34;1.57;;;1.47;;
3924;SDS011;1977;52.274;10.518;2024-03-29T06:10:01;2.67;;;2.03;;
3924;SDS011;1977;52.274;10.518;2024-03-29T06:12:30;3.50;;;2.33;;
3924;SDS011;1977;52.274;10.518;2024-03-29T06:14:56;2.60;;;2.23;;
3924;SDS011;1977;52.274;10.518;2024-03-29T06:17:41;2.40;;;2.20;;
3924;SDS011;1977;52.274;10.518;2024-03-29T06:20:09;4.17;;;2.50;;
3924;SDS011;1977;52.274;10.518;2024-03-29T06:22:36;2.00;;;1.90;;
3924;SDS011;1977;52.274;10.518;2024-03-29T06:25:04;2.63;;;2.40;;
3924;SDS011;1977;52.274;10.518;2024-03-29T06:27:31;2.03;;;1.90;;
3924;SDS011;1977;52.274;10.518;2024-03-29T06:29:58;1.63;;;1.50;;
3924;SDS011;1977;52.274;10.518;2024-03-29T06:32:25;1.43;;;1.33;;
3924;SDS011;1977;52.274;10.518;2024-03-29T06:34:51;1.20;;;1.20;;
3924;SDS011;1977;52.274;10.518;2024-03-29T06:37:20;1.57;;;1.40;;
3924;SDS011;1977;52.274;10.518;2024-03-29T06:39:47;2.83;;;1.83;;
3924;SDS011;1977;52.274;10.518;2024-03-29T06:42:14;2.70;;;1.50;;
3924;SDS011;1977;52.274;10.518;2024-03-29T06:44:40;2.03;;;1.60;;
3924;SDS011;1977;52.274;10.518;2024-03-29T06:47:07;1.33;;;1.23;;
3924;SDS011;1977;52.274;10.518;2024-03-29T06:49:34;1.57;;;1.47;;
3924;SDS011;1977;52.274;10.518;2024-03-29T06:52:01;1.80;;;1.50;;
3924;SDS011;1977;52.274;10.518;2024-03-29T06:54:30;1.43;;;1.33;;
3924;SDS011;1977;52.274;10.518;2024-03-29T06:56:57;3.13;;;1.27;;
3924;SDS011;1977;52.274;10.518;2024-03-29T06:59:25;1.53;;;1.00;;
3924;SDS011;1977;52.274;10.518;2024-03-29T07:01:52;1.87;;;1.10;;
3924;SDS011;1977;52.274;10.518;2024-03-29T07:04:20;1.20;;;1.20;;
3924;SDS011;1977;52.274;10.518;2024-03-29T07:06:47;1.20;;;1.10;;
3924;SDS011;1977;52.274;10.518;2024-03-29T07:09:16;3.40;;;1.30;;
3924;SDS011;1977;52.274;10.518;2024-03-29T07:11:45;1.93;;;1.07;;
3924;SDS011;1977;52.274;10.518;2024-03-29T07:14:12;1.50;;;1.40;;
3924;SDS011;1977;52.274;10.518;2024-03-29T07:16:39;1.60;;;1.50;;
3924;SDS011;1977;52.274;10.518;2024-03-29T07:19:06;1.43;;;1.17;;
3924;SDS011;1977;52.274;10.518;2024-03-29T07:21:33;1.23;;;1.13;;
3924;SDS011;1977;52.274;10.518;2024-03-29T07:23:59;2.40;;;1.50;;
3924;SDS011;1977;52.274;10.518;2024-03-29T07:26:26;3.40;;;1.60;;
3924;SDS011;1977;52.274;10.518;2024-03-29T07:28:54;2.40;;;1.40;;
3924;SDS011;1977;52.274;10.518;2024-03-29T07:31:21;2.17;;;1.97;;
3924;SDS011;1977;52.274;10.518;2024-03-29T07:33:48;2.70;;;2.47;;
3924;SDS011;1977;52.274;10.518;2024-03-29T07:36:14;1.70;;;1.60;;
3924;SDS011;1977;52.274;10.518;2024-03-29T07:38:42;2.87;;;2.00;;
3924;SDS011;1977;52.274;10.518;2024-03-29T07:41:09;2.30;;;1.60;;
3924;SDS011;1977;52.274;10.518;2024-03-29T07:43:40;1.60;;;1.50;;
3924;SDS011;1977;52.274;10.518;2024-03-29T07:46:08;2.40;;;1.63;;
3924;SDS011;1977;52.274;10.518;2024-03-29T07:48:35;1.90;;;1.80;;
3924;SDS011;1977;52.274;10.518;2024-03-29T07:51:02;2.03;;;1.67;;
3924;SDS011;1977;52.274;10.518;2024-03-29T07:53:29;1.77;;;1.63;;
3924;SDS011;1977;52.274;10.518;2024-03-29T07:55:55;5.23;;;1.90;;
3924;SDS011;1977;52.274;10.518;2024-03-29T07:58:22;2.90;;;1.40;;
3924;SDS011;1977;52.274;10.518;2024-03-29T08:00:50;1.63;;;1.53;;
3924;SDS011;1977;52.274;10.518;2024-03-29T08:03:19;1.53;;;1.43;;
3924;SDS011;1977;52.274;10.518;2024-03-29T08:05:55;1.10;;;1.10;;
3924;SDS011;1977;52.274;10.518;2024-03-29T08:08:22;1.50;;;1.30;;
3924;SDS011;1977;52.274;10.518;2024-03-29T08:10:50;1.50;;;1.40;;
3924;SDS011;1977;52.274;10.518;2024-03-29T08:13:17;1.83;;;1.33;;
3924;SDS011;1977;52.274;10.518;2024-03-29T08:15:45;4.20;;;1.60;;
3924;SDS011;1977;52.274;10.518;2024-03-29T08:18:12;1.40;;;1.30;;
3924;SDS011;1977;52.274;10.518;2024-03-29T08:20:40;1.53;;;1.43;;
3924;SDS011;1977;52.274;10.518;2024-03-29T08:23:08;1.70;;;1.60;;
3924;SDS011;1977;52.274;10.518;2024-03-29T08:25:34;3.37;;;1.50;;
3924;SDS011;1977;52.274;10.518;2024-03-29T08:28:01;1.80;;;1.60;;
3924;SDS011;1977;52.274;10.518;2024-03-29T08:30:28;1.23;;;1.23;;
3924;SDS011;1977;52.274;10.518;2024-03-29T08:33:00;2.13;;;2.03;;
3924;SDS011;1977;52.274;10.518;2024-03-29T08:35:28;1.20;;;1.00;;
3924;SDS011;1977;52.274;10.518;2024-03-29T08:37:56;2.80;;;1.30;;
3924;SDS011;1977;52.274;10.518;2024-03-29T08:40:23;1.23;;;1.10;;
3924;SDS011;1977;52.274;10.518;2024-03-29T08:42:50;1.60;;;1.50;;
3924;SDS011;1977;52.274;10.518;2024-03-29T08:45:17;1.93;;;1.83;;
3924;SDS011;1977;52.274;10.518;2024-03-29T08:47:43;2.63;;;1.47;;
3924;SDS011;1977;52.274;10.518;2024-03-29T08:50:10;2.57;;;1.70;;
3924;SDS011;1977;52.274;10.518;2024-03-29T08:52:38;1.73;;;1.50;;
3924;SDS011;1977;52.274;10.518;2024-03-29T08:55:06;1.80;;;1.70;;
3924;SDS011;1977;52.274;10.518;2024-03-29T08:57:34;1.80;;;1.70;;
3924;SDS011;1977;52.274;10.518;2024-03-29T09:00:00;1.50;;;1.40;;
3924;SDS011;1977;52.274;10.518;2024-03-29T09:02:28;3.07;;;1.77;;
3924;SDS011;1977;52.274;10.518;2024-03-29T09:04:55;1.50;;;1.40;;
3924;SDS011;1977;52.274;10.518;2024-03-29T09:07:23;1.50;;;1.40;;
3924;SDS011;1977;52.274;10.518;2024-03-29T09:09:50;1.27;;;1.23;;
3924;SDS011;1977;52.274;10.518;2024-03-29T09:12:18;2.00;;;1.40;;
3924;SDS011;1977;52.274;10.518;2024-03-29T09:14:45;1.57;;;1.23;;
3924;SDS011;1977;52.274;10.518;2024-03-29T09:17:11;2.00;;;1.80;;
3924;SDS011;1977;52.274;10.518;2024-03-29T09:19:38;1.67;;;1.57;;
3924;SDS011;1977;52.274;10.518;2024-03-29T09:22:05;1.23;;;1.13;;
3924;SDS011;1977;52.274;10.518;2024-03-29T09:24:32;1.43;;;1.33;;
3924;SDS011;1977;52.274;10.518;2024-03-29T09:26:59;1.40;;;1.30;;
3924;SDS011;1977;52.274;10.518;2024-03-29T09:29:28;2.00;;;1.20;;
3924;SDS011;1977;52.274;10.518;2024-03-29T09:31:55;1.20;;;1.10;;
3924;SDS011;1977;52.274;10.518;2024-03-29T09:34:22;1.30;;;1.20;;
3924;SDS011;1977;52.274;10.518;2024-03-29T09:36:49;2.23;;;1.80;;
3924;SDS011;1977;52.274;10.518;2024-03-29T09:39:15;2.00;;;1.90;;
3924;SDS011;1977;52.274;10.518;2024-03-29T09:41:43;1.30;;;1.20;;
3924;SDS011;1977;52.274;10.518;2024-03-29T09:44:11;1.63;;;1.53;;
3924;SDS011;1977;52.274;10.518;2024-03-29T09:46:40;1.90;;;1.80;;
3924;SDS011;1977;52.274;10.518;2024-03-29T09:49:08;2.07;;;1.87;;
3924;SDS011;1977;52.274;10.518;2024-03-29T09:51:37;1.60;;;1.50;;
3924;SDS011;1977;52.274;10.518;2024-03-29T09:54:05;2.00;;;1.87;;
3924;SDS011;1977;52.274;10.518;2024-03-29T09:56:38;1.20;;;1.07;;
3924;SDS011;1977;52.274;10.518;2024-03-29T09:59:05;1.07;;;1.07;;
3924;SDS011;1977;52.274;10.518;2024-03-29T10:01:34;1.33;;;1.23;;
3924;SDS011;1977;52.274;10.518;2024-03-29T10:04:02;1.20;;;1.10;;
3924;SDS011;1977;52.274;10.518;2024-03-29T10:06:30;1.60;;;1.50;;
3924;SDS011;1977;52.274;10.518;2024-03-29T10:09:00;2.03;;;1.53;;
3924;SDS011;1977;52.274;10.518;2024-03-29T10:11:27;1.60;;;1.50;;
3924;SDS011;1977;52.274;10.518;2024-03-29T10:13:54;1.10;;;1.10;;
3924;SDS011;1977;52.274;10.518;2024-03-29T10:16:20;1.10;;;1.10;;
3924;SDS011;1977;52.274;10.518;2024-03-29T10:18:49;1.10;;;1.10;;
3924;SDS011;1977;52.274;10.518;2024-03-29T10:21:17;1.07;;;1.07;;
3924;SDS011;1977;52.274;10.518;2024-03-29T10:23:50;1.47;;;1.37;;
3924;SDS011;1977;52.274;10.518;2024-03-29T10:26:17;1.20;;;1.10;;
3924;SDS011;1977;52.274;10.518;2024-03-29T10:28:46;1.33;;;1.23;;
3924;SDS011;1977;52.274;10.518;2024-03-29T10:31:14;2.40;;;2.30;;
3924;SDS011;1977;52.274;10.518;2024-03-29T10:33:41;1.70;;;1.60;;
3924;SDS011;1977;52.274;10.518;2024-03-29T10:36:09;1.77;;;1.50;;
3924;SDS011;1977;52.274;10.518;2024-03-29T10:38:38;1.00;;;1.00;;
3924;SDS011;1977;52.274;10.518;2024-03-29T10:41:06;1.50;;;1.40;;
3924;SDS011;1977;52.274;10.518;2024-03-29T10:43:34;1.03;;;1.03;;
3924;SDS011;1977;52.274;10.518;2024-03-29T10:46:01;2.80;;;1.00;;
3924;SDS011;1977;52.274;10.518;2024-03-29T10:48:28;0.90;;;0.90;;
3924;SDS011;1977;52.274;10.518;2024-03-29T10:50:58;1.00;;;1.00;;
3924;SDS011;1977;52.274;10.518;2024-03-29T10:53:25;1.27;;;1.17;;
3924;SDS011;1977;52.274;10.518;2024-03-29T10:55:55;1.30;;;1.20;;
3924;SDS011;1977;52.274;10.518;2024-03-29T10:58:24;1.03;;;0.97;;
3924;SDS011;1977;52.274;10.518;2024-03-29T11:00:56;1.20;;;1.00;;
3924;SDS011;1977;52.274;10.518;2024-03-29T11:03:26;1.33;;;1.23;;
3924;SDS011;1977;52.274;10.518;2024-03-29T11:05:59;1.00;;;1.00;;
3924;SDS011;1977;52.274;10.518;2024-03-29T11:08:29;2.13;;;1.33;;
3924;SDS011;1977;52.274;10.518;2024-03-29T11:11:04;1.73;;;1.20;;
3924;SDS011;1977;52.274;10.518;2024-03-29T11:13:33;2.00;;;1.80;;
3924;SDS011;1977;52.274;10.518;2024-03-29T11:16:04;1.73;;;1.20;;
3924;SDS011;1977;52.274;10.518;2024-03-29T11:18:31;1.80;;;1.70;;
3924;SDS011;1977;52.274;10.518;2024-03-29T11:20:58;10.43;;;1.73;;
3924;SDS011;1977;52.274;10.518;2024-03-29T11:23:31;2.77;;;1.80;;
3924;SDS011;1977;52.274;10.518;2024-03-29T11:25:58;2.70;;;1.90;;
3924;SDS011;1977;52.274;10.518;2024-03-29T11:28:29;2.03;;;1.90;;
3924;SDS011;1977;52.274;10.518;2024-03-29T11:30:58;2.10;;;1.90;;
3924;SDS011;1977;52.274;10.518;2024-03-29T11:33:30;2.00;;;1.80;;
3924;SDS011;1977;52.274;10.518;2024-03-29T11:35:59;2.20;;;2.10;;
3924;SDS011;1977;52.274;10.518;2024-03-29T11:38:30;2.83;;;2.40;;
3924;SDS011;1977;52.274;10.518;2024-03-29T11:41:01;2.30;;;1.50;;
3924;SDS011;1977;52.274;10.518;2024-03-29T11:43:30;1.87;;;1.33;;
3924;SDS011;1977;52.274;10.518;2024-03-29T11:45:57;2.03;;;1.33;;
3924;SDS011;1977;52.274;10.518;2024-03-29T11:48:26;1.00;;;0.90;;
3924;SDS011;1977;52.274;10.518;2024-03-29T11:50:53;2.53;;;1.40;;
3924;SDS011;1977;52.274;10.518;2024-03-29T11:53:20;1.37;;;1.17;;
3924;SDS011;1977;52.274;10.518;2024-03-29T11:55:47;1.00;;;1.00;;
3924;SDS011;1977;52.274;10.518;2024-03-29T11:58:18;1.60;;;1.50;;
3924;SDS011;1977;52.274;10.518;2024-03-29T12:00:47;1.50;;;1.40;;
3924;SDS011;1977;52.274;10.518;2024-03-29T12:03:14;1.23;;;1.20;;
3924;SDS011;1977;52.274;10.518;2024-03-29T12:05:41;1.20;;;1.10;;
3924;SDS011;1977;52.274;10.518;2024-03-29T12:08:08;1.30;;;1.20;;
3924;SDS011;1977;52.274;10.518;2024-03-29T12:10:36;1.37;;;1.20;;
3924;SDS011;1977;52.274;10.518;2024-03-29T12:13:04;1.47;;;1.27;;
3924;SDS011;1977;52.274;10.518;2024-03-29T12:15:31;1.63;;;1.53;;
3924;SDS011;1977;52.274;10.518;2024-03-29T12:18:00;1.30;;;1.10;;
3924;SDS011;1977;52.274;10.518;2024-03-29T12:20:28;2.60;;;1.30;;
3924;SDS011;1977;52.274;10.518;2024-03-29T12:22:56;1.50;;;1.40;;
3924;SDS011;1977;52.274;10.518;2024-03-29T12:25:26;1.40;;;1.30;;
3924;SDS011;1977;52.274;10.518;2024-03-29T12:27:53;2.00;;;1.90;;
3924;SDS011;1977;52.274;10.518;2024-03-29T12:30:20;2.27;;;1.67;;
3924;SDS011;1977;52.274;10.518;2024-03-29T12:32:48;1.90;;;1.40;;
3924;SDS011;1977;52.274;10.518;2024-03-29T12:35:16;1.80;;;1.40;;
3924;SDS011;1977;52.274;10.518;2024-03-29T12:37:49;1.90;;;1.80;;
3924;SDS011;1977;52.274;10.518;2024-03-29T12:40:16;3.47;;;1.47;;
3924;SDS011;1977;52.274;10.518;2024-03-29T12:42:47;1.80;;;1.43;;
3924;SDS011;1977;52.274;10.518;2024-03-29T12:45:14;1.87;;;1.50;;
3924;SDS011;1977;52.274;10.518;2024-03-29T12:47:41;2.23;;;1.60;;
3924;SDS011;1977;52.274;10.518;2024-03-29T12:50:08;1.63;;;1.43;;
3924;SDS011;1977;52.274;10.518;2024-03-29T12:52:40;2.43;;;1.00;;
3924;SDS011;1977;52.274;10.518;2024-03-29T12:55:07;2.23;;;2.03;;
3924;SDS011;1977;52.274;10.518;2024-03-29T12:57:35;1.30;;;1.20;;
3924;SDS011;1977;52.274;10.518;2024-03-29T13:00:02;1.00;;;1.00;;
3924;SDS011;1977;52.274;10.518;2024-03-29T13:02:33;1.37;;;1.27;;
3924;SDS011;1977;52.274;10.518;2024-03-29T13:05:00;1.57;;;1.47;;
3924;SDS011;1977;52.274;10.518;2024-03-29T13:07:27;1.37;;;1.27;;
3924;SDS011;1977;52.274;10.518;2024-03-29T13:09:55;1.77;;;1.47;;
3924;SDS011;1977;52.274;10.518;2024-03-29T13:12:23;1.67;;;1.57;;
3924;SDS011;1977;52.274;10.518;2024-03-29T13:14:51;3.37;;;1.40;;
3924;SDS011;1977;52.274;10.518;2024-03-29T13:17:18;1.90;;;1.80;;
3924;SDS011;1977;52.274;10.518;2024-03-29T13:19:45;1.90;;;1.80;;
3924;SDS011;1977;52.274;10.518;2024-03-29T13:22:11;2.33;;;1.80;;
3924;SDS011;1977;52.274;10.518;2024-03-29T13:24:38;2.17;;;2.07;;
3924;SDS011;1977;52.274;10.518;2024-03-29T13:27:06;1.77;;;1.67;;
3924;SDS011;1977;52.274;10.518;2024-03-29T13:29:33;1.47;;;1.37;;
3924;SDS011;1977;52.274;10.518;2024-03-29T13:32:00;1.70;;;1.60;;
3924;SDS011;1977;52.274;10.518;2024-03-29T13:34:26;1.30;;;1.20;;
3924;SDS011;1977;52.274;10.518;2024-03-29T13:36:53;1.80;;;1.70;;
3924;SDS011;1977;52.274;10.518;2024-03-29T13:39:20;1.47;;;1.37;;
3924;SDS011;1977;52.274;10.518;2024-03-29T13:41:48;1.47;;;1.37;;
3924;SDS011;1977;52.274;10.518;2024-03-29T13:44:16;1.67;;;1.40;;
3924;SDS011;1977;52.274;10.518;2024-03-29T13:46:43;1.50;;;1.20;;
3924;SDS011;1977;52.274;10.518;2024-03-29T13:49:10;1.30;;;1.20;;
3924;SDS011;1977;52.274;10.518;2024-03-29T13:51:38;2.10;;;1.40;;
3924;SDS011;1977;52.274;10.518;2024-03-29T13:54:05;1.53;;;1.43;;
3924;SDS011;1977;52.274;10.518;2024-03-29T13:56:32;1.87;;;1.27;;
3924;SDS011;1977;52.274;10.518;2024-03-29T13:58:59;1.57;;;1.47;;
3924;SDS011;1977;52.274;10.518;2024-03-29T14:01:27;1.27;;;1.27;;
3924;SDS011;1977;52.274;10.518;2024-03-29T14:03:54;1.40;;;1.30;;
3924;SDS011;1977;52.274;10.518;2024-03-29T14:06:20;1.37;;;1.27;;
3924;SDS011;1977;52.274;10.518;2024-03-29T14:08:47;4.30;;;1.20;;
3924;SDS011;1977;52.274;10.518;2024-03-29T14:11:14;1.10;;;1.10;;
3924;SDS011;1977;52.274;10.518;2024-03-29T14:13:43;1.50;;;1.40;;
3924;SDS011;1977;52.274;10.518;2024-03-29T14:16:12;1.43;;;1.33;;
3924;SDS011;1977;52.274;10.518;2024-03-29T14:18:40;1.10;;;1.10;;
3924;SDS011;1977;52.274;10.518;2024-03-29T14:21:07;1.87;;;1.70;;
3924;SDS011;1977;52.274;10.518;2024-03-29T14:23:34;1.30;;;1.20;;
3924;SDS011;1977;52.274;10.518;2024-03-29T14:26:01;1.27;;;1.23;;
3924;SDS011;1977;52.274;10.518;2024-03-29T14:28:27;1.30;;;1.20;;
3924;SDS011;1977;52.274;10.518;2024-03-29T14:30:54;1.43;;;1.33;;
3924;SDS011;1977;52.274;10.518;2024-03-29T14:33:21;1.60;;;1.50;;
3924;SDS011;1977;52.274;10.518;2024-03-29T14:35:49;1.50;;;1.40;;
3924;SDS011;1977;52.274;10.518;2024-03-29T14:38:16;1.73;;;1.57;;
3924;SDS011;1977;52.274;10.518;2024-03-29T14:40:43;2.20;;;1.60;;
3924;SDS011;1977;52.274;10.518;2024-03-29T14:43:11;1.57;;;1.47;;
3924;SDS011;1977;52.274;10.518;2024-03-29T14:45:39;1.37;;;1.20;;
3924;SDS011;1977;52.274;10.518;2024-03-29T14:48:06;1.50;;;1.40;;
3924;SDS011;1977;52.274;10.518;2024-03-29T14:50:33;1.70;;;1.60;;
3924;SDS011;1977;52.274;10.518;2024-03-29T14:53:01;3.00;;;1.23;;
3924;SDS011;1977;52.274;10.518;2024-03-29T14:55:28;1.60;;;1.50;;
3924;SDS011;1977;52.274;10.518;2024-03-29T14:57:55;1.50;;;1.40;;
3924;SDS011;1977;52.274;10.518;2024-03-29T15:00:22;2.07;;;1.63;;
3924;SDS011;1977;52.274;10.518;2024-03-29T15:02:49;1.60;;;1.50;;